Time;durP1;ratioP1;P1;durP2;ratioP2;P2;SDS_P1;SDS_P2;PMS_P1;PMS_P2;Temp;Humidity;BMP_temperature;BMP_pressure;BME280_temperature;BME280_humidity;BME280_pressure;Samples;Min_cycle;Max_cycle;Signal;HPM_P1;HPM_P2
2022/07/14 00:02:01;;;;;;;5.22;3.58;;;;;;;;;;5106825;28;20097;-76
2022/07/14 00:04:31;;;;;;;7.97;3.80;;;;;;;;;;5105800;28;20410;-70
2022/07/14 00:07:01;;;;;;;4.90;2.65;;;;;;;;;;5108334;28;20052;-74
2022/07/14 00:09:31;;;;;;;6.30;3.60;;;;;;;;;;5111029;28;20483;-74
2022/07/14 00:12:01;;;;;;;7.00;3.00;;;;;;;;;;5110640;28;20055;-73
2022/07/14 00:14:31;;;;;;;;;;;;;;;;;;5111647;28;20066;-72
2022/07/14 00:17:00;;;;;;;5.18;2.20;;;;;;;;;;5111466;28;19930;-73
2022/07/14 00:19:30;;;;;;;;;;;;;;;;;;5111038;28;20048;-72
2022/07/14 00:21:59;;;;;;;4.53;2.50;;;;;;;;;;5110808;28;19930;-72
2022/07/14 00:24:29;;;;;;;4.30;2.05;;;;;;;;;;5107989;28;20047;-73
2022/07/14 00:26:59;;;;;;;5.50;2.10;;;;;;;;;;5108941;28;20495;-72
2022/07/14 00:29:29;;;;;;;;;;;;;;;;;;5110871;28;20128;-71
2022/07/14 00:31:58;;;;;;;3.47;1.90;;;;;;;;;;5108535;28;20410;-71
2022/07/14 00:34:28;;;;;;;3.72;2.35;;;;;;;;;;5110528;28;20055;-71
2022/07/14 00:36:58;;;;;;;;;;;;;;;;;;5111087;28;20048;-72
2022/07/14 00:39:54;;;;;;;3.35;1.70;;;;;;;;;;5110298;28;20313;-73
2022/07/14 00:42:40;;;;;;;3.10;1.88;;;;;;;;;;5110001;28;20050;-72
2022/07/14 00:45:13;;;;;;;4.53;1.70;;;;;;;;;;5111308;28;20051;-72
2022/07/14 00:47:46;;;;;;;5.78;2.63;;;;;;;;;;5109275;28;20043;-73
2022/07/14 00:50:18;;;;;;;3.60;2.80;;;;;;;;;;5110351;28;20051;-73
2022/07/14 00:52:50;;;;;;;4.80;2.85;;;;;;;;;;5108136;28;20059;-74
2022/07/14 00:55:21;;;;;;;7.60;3.03;;;;;;;;;;5110623;28;20565;-71
2022/07/14 00:57:51;;;;;;;7.68;3.03;;;;;;;;;;5109535;28;20055;-73
2022/07/14 01:00:20;;;;;;;;;;;;;;;;;;5110215;28;20043;-72
2022/07/14 01:02:50;;;;;;;3.65;2.60;;;;;;;;;;5110091;28;19923;-73
2022/07/14 01:05:20;;;;;;;15.50;4.57;;;;;;;;;;5110089;28;20058;-74
2022/07/14 01:07:50;;;;;;;5.95;3.00;;;;;;;;;;5108355;28;20048;-72
2022/07/14 01:10:20;;;;;;;7.25;3.20;;;;;;;;;;5110369;28;20058;-72
2022/07/14 01:12:51;;;;;;;8.10;3.42;;;;;;;;;;5107427;28;20055;-72
2022/07/14 01:15:24;;;;;;;7.15;3.80;;;;;;;;;;5107864;28;20062;-71
2022/07/14 01:17:54;;;;;;;6.78;3.92;;;;;;;;;;5106870;28;20039;-70
2022/07/14 01:20:25;;;;;;;6.70;4.15;;;;;;;;;;5105097;28;20056;-71
2022/07/14 01:22:56;;;;;;;5.32;3.42;;;;;;;;;;5106246;28;20054;-73
2022/07/14 01:25:26;;;;;;;;;;;;;;;;;;5106538;28;20059;-71
2022/07/14 01:27:56;;;;;;;6.57;3.00;;;;;;;;;;5107246;28;19920;-72
2022/07/14 01:30:26;;;;;;;6.88;3.88;;;;;;;;;;5106637;28;20043;-73
2022/07/14 01:32:57;;;;;;;6.85;3.53;;;;;;;;;;5107181;28;20043;-72
2022/07/14 01:35:26;;;;;;;8.70;4.32;;;;;;;;;;5108199;28;20050;-73
2022/07/14 01:37:57;;;;;;;7.63;4.63;;;;;;;;;;5109198;28;20055;-71
2022/07/14 01:40:27;;;;;;;9.43;3.80;;;;;;;;;;5107123;28;20043;-73
2022/07/14 01:42:57;;;;;;;6.90;3.83;;;;;;;;;;5106848;28;20082;-70
2022/07/14 01:45:27;;;;;;;8.00;3.38;;;;;;;;;;5109197;28;20048;-71
2022/07/14 01:47:56;;;;;;;4.53;3.38;;;;;;;;;;5107783;28;20048;-71
2022/07/14 01:50:26;;;;;;;6.40;3.58;;;;;;;;;;5107414;28;20430;-70
2022/07/14 01:52:57;;;;;;;10.95;6.05;;;;;;;;;;5107283;28;20050;-71
2022/07/14 01:55:27;;;;;;;8.80;4.35;;;;;;;;;;5107265;28;20040;-72
2022/07/14 01:57:56;;;;;;;;;;;;;;;;;;5108239;28;20062;-73
2022/07/14 02:00:26;;;;;;;8.40;4.50;;;;;;;;;;5107011;28;20409;-72
2022/07/14 02:03:02;;;;;;;8.70;3.85;;;;;;;;;;5107133;28;20052;-71
2022/07/14 02:05:32;;;;;;;5.68;3.72;;;;;;;;;;5108537;28;20407;-72
2022/07/14 02:08:01;;;;;;;5.55;2.95;;;;;;;;;;5107197;28;20490;-71
2022/07/14 02:13:24;;;;;;;6.70;3.08;;;;;;;;;;5107481;28;20052;-72
2022/07/14 02:15:55;;;;;;;6.90;3.17;;;;;;;;;;5106541;28;20062;-72
2022/07/14 02:18:26;;;;;;;6.00;3.30;;;;;;;;;;5106557;28;20056;-72
2022/07/14 02:20:56;;;;;;;5.47;3.28;;;;;;;;;;5109074;28;20047;-73
2022/07/14 02:23:26;;;;;;;5.03;3.05;;;;;;;;;;5106620;28;20048;-71
2022/07/14 02:25:56;;;;;;;6.50;3.22;;;;;;;;;;5106647;28;20055;-72
2022/07/14 02:28:26;;;;;;;6.93;3.28;;;;;;;;;;5108512;28;20055;-71
2022/07/14 02:30:56;;;;;;;6.78;3.83;;;;;;;;;;5108036;28;20043;-70
2022/07/14 02:33:25;;;;;;;6.28;3.30;;;;;;;;;;5108442;28;20047;-70
2022/07/14 02:35:55;;;;;;;4.88;2.72;;;;;;;;;;5108319;28;20047;-72
2022/07/14 02:38:25;;;;;;;6.10;3.33;;;;;;;;;;5106609;28;20407;-71
2022/07/14 02:40:55;;;;;;;7.25;3.47;;;;;;;;;;5106105;28;20043;-71
2022/07/14 02:43:26;;;;;;;6.55;3.53;;;;;;;;;;5108530;28;20052;-70
2022/07/14 02:45:57;;;;;;;6.70;3.63;;;;;;;;;;5108427;28;20047;-70
2022/07/14 02:48:27;;;;;;;6.72;3.60;;;;;;;;;;5106433;28;20055;-75
2022/07/14 02:51:02;;;;;;;9.65;3.90;;;;;;;;;;5106378;28;20051;-71
2022/07/14 02:53:34;;;;;;;8.02;4.30;;;;;;;;;;5105743;28;20067;-72
2022/07/14 02:56:07;;;;;;;8.27;4.70;;;;;;;;;;5105736;28;20544;-73
2022/07/14 02:58:40;;;;;;;8.80;4.13;;;;;;;;;;5106388;28;20059;-71
2022/07/14 03:01:11;;;;;;;9.88;3.70;;;;;;;;;;5107856;28;20768;-72
2022/07/14 03:03:42;;;;;;;7.57;4.05;;;;;;;;;;5107569;28;20044;-72
2022/07/14 03:06:18;;;;;;;7.50;4.30;;;;;;;;;;5105789;28;20420;-72
2022/07/14 03:08:52;;;;;;;8.88;4.32;;;;;;;;;;5106746;28;20051;-71
2022/07/14 03:11:22;;;;;;;8.05;4.63;;;;;;;;;;5105260;28;20055;-72
2022/07/14 03:13:53;;;;;;;8.00;4.40;;;;;;;;;;5105811;28;20427;-72
2022/07/14 03:16:23;;;;;;;10.50;4.88;;;;;;;;;;5105739;28;20059;-72
2022/07/14 03:18:55;;;;;;;7.22;4.20;;;;;;;;;;5105699;28;20055;-71
2022/07/14 03:21:25;;;;;;;8.85;4.53;;;;;;;;;;5105771;28;20058;-72
2022/07/14 03:23:57;;;;;;;9.80;4.47;;;;;;;;;;5105856;28;20047;-72
2022/07/14 03:26:30;;;;;;;7.93;4.40;;;;;;;;;;5105064;28;20059;-73
2022/07/14 03:29:00;;;;;;;9.32;4.95;;;;;;;;;;5105863;28;20052;-72
2022/07/14 03:31:31;;;;;;;7.40;4.22;;;;;;;;;;5106498;28;20055;-70
2022/07/14 03:34:04;;;;;;;8.98;4.35;;;;;;;;;;5105658;28;20047;-72
2022/07/14 03:36:36;;;;;;;7.93;4.30;;;;;;;;;;5105246;28;20043;-70
2022/07/14 03:39:16;;;;;;;9.75;4.53;;;;;;;;;;5105179;28;20533;-72
2022/07/14 03:41:47;;;;;;;8.40;3.90;;;;;;;;;;5105149;28;20063;-71
2022/07/14 03:44:19;;;;;;;8.85;4.30;;;;;;;;;;5105259;28;20052;-71
2022/07/14 03:46:49;;;;;;;6.93;4.47;;;;;;;;;;5105672;28;20055;-71
2022/07/14 03:49:22;;;;;;;8.10;4.55;;;;;;;;;;5105701;28;20507;-71
2022/07/14 03:51:56;;;;;;;10.95;4.82;;;;;;;;;;5104694;28;20052;-71
2022/07/14 03:54:25;;;;;;;;;;;;;;;;;;5108240;28;20510;-71
2022/07/14 03:56:55;;;;;;;6.13;4.07;;;;;;;;;;5089116;28;19923;-72
2022/07/14 03:59:26;;;;;;;8.13;3.97;;;;;;;;;;5105135;28;20047;-70
2022/07/14 04:01:57;;;;;;;8.68;4.10;;;;;;;;;;5105743;28;20059;-71
2022/07/14 04:04:27;;;;;;;7.35;3.67;;;;;;;;;;5105284;28;20070;-72
2022/07/14 04:06:58;;;;;;;7.72;3.72;;;;;;;;;;5105258;28;20056;-72
2022/07/14 04:09:28;;;;;;;8.07;3.67;;;;;;;;;;5107343;28;20047;-71
2022/07/14 04:11:59;;;;;;;5.95;3.50;;;;;;;;;;5105035;28;20044;-72
2022/07/14 04:14:31;;;;;;;6.03;3.05;;;;;;;;;;5105419;28;20137;-70
2022/07/14 04:17:01;;;;;;;8.40;4.05;;;;;;;;;;5105442;28;20048;-71
2022/07/14 04:19:31;;;;;;;6.07;3.15;;;;;;;;;;5105360;28;20055;-71
2022/07/14 04:22:01;;;;;;;7.07;3.67;;;;;;;;;;5106895;28;20048;-72
2022/07/14 04:24:51;;;;;;;5.80;3.17;;;;;;;;;;5105200;28;20426;-70
2022/07/14 04:27:21;;;;;;;6.07;3.35;;;;;;;;;;5105253;28;20426;-71
2022/07/14 04:29:51;;;;;;;6.07;3.47;;;;;;;;;;5105038;28;20073;-70
2022/07/14 04:32:21;;;;;;;8.60;3.20;;;;;;;;;;5106583;28;20051;-72
2022/07/14 04:34:51;;;;;;;6.55;3.47;;;;;;;;;;5105269;28;20422;-72
2022/07/14 04:37:21;;;;;;;6.20;3.75;;;;;;;;;;5105256;28;20055;-72
2022/07/14 04:39:52;;;;;;;6.00;3.80;;;;;;;;;;5104958;28;20114;-72
2022/07/14 04:42:23;;;;;;;6.97;3.78;;;;;;;;;;5105355;28;20403;-72
2022/07/14 04:44:53;;;;;;;8.10;3.85;;;;;;;;;;5104929;28;20052;-72
2022/07/14 04:47:23;;;;;;;8.60;4.05;;;;;;;;;;5105280;28;20051;-72
2022/07/14 04:52:48;;;;;;;7.07;3.85;;;;;;;;;;5104979;28;19924;-72
2022/07/14 04:55:41;;;;;;;7.38;3.42;;;;;;;;;;5108335;28;20067;-71
2022/07/14 04:58:27;;;;;;;6.43;3.70;;;;;;;;;;5108940;28;20046;-70
2022/07/14 05:01:01;;;;;;;8.63;3.47;;;;;;;;;;5108251;28;20051;-71
2022/07/14 05:03:36;;;;;;;5.82;3.42;;;;;;;;;;5109892;28;20043;-70
2022/07/14 05:06:06;;;;;;;7.47;3.85;;;;;;;;;;5108202;28;20051;-70
2022/07/14 05:08:36;;;;;;;7.38;3.58;;;;;;;;;;5108808;28;20050;-70
2022/07/14 05:11:08;;;;;;;7.18;4.55;;;;;;;;;;5107656;28;20052;-70
2022/07/14 05:13:39;;;;;;;5.63;3.42;;;;;;;;;;5107989;28;20051;-71
2022/07/14 05:16:08;;;;;;;7.25;3.90;;;;;;;;;;5107877;28;20051;-69
2022/07/14 05:18:42;;;;;;;8.05;4.03;;;;;;;;;;5108172;28;20058;-72
2022/07/14 05:21:13;;;;;;;10.80;4.93;;;;;;;;;;5107728;28;20043;-69
2022/07/14 05:23:43;;;;;;;8.80;4.55;;;;;;;;;;5108413;28;20055;-71
2022/07/14 05:26:15;;;;;;;9.20;4.47;;;;;;;;;;5107789;28;20085;-73
2022/07/14 05:28:46;;;;;;;7.90;4.25;;;;;;;;;;5108454;28;20059;-70
2022/07/14 05:31:16;;;;;;;9.30;4.60;;;;;;;;;;5091238;28;20059;-71
2022/07/14 05:33:49;;;;;;;7.72;4.22;;;;;;;;;;5107582;28;20063;-72
2022/07/14 05:36:20;;;;;;;8.77;4.35;;;;;;;;;;5106820;28;20039;-72
2022/07/14 05:38:50;;;;;;;8.50;4.53;;;;;;;;;;5109529;28;20054;-70
2022/07/14 05:41:20;;;;;;;8.25;4.68;;;;;;;;;;5109302;28;20052;-72
2022/07/14 05:43:50;;;;;;;8.23;4.55;;;;;;;;;;5107872;28;20051;-71
2022/07/14 05:46:20;;;;;;;10.20;4.80;;;;;;;;;;5107493;28;20062;-70
2022/07/14 05:48:50;;;;;;;9.18;4.90;;;;;;;;;;5108065;28;20054;-70
2022/07/14 05:51:22;;;;;;;7.45;4.30;;;;;;;;;;5107990;28;20487;-71
2022/07/14 05:53:54;;;;;;;10.32;4.82;;;;;;;;;;5107331;28;20522;-70
2022/07/14 05:56:28;;;;;;;11.27;4.70;;;;;;;;;;5107513;28;20050;-71
2022/07/14 05:58:58;;;;;;;8.77;4.72;;;;;;;;;;5108786;28;20047;-72
2022/07/14 06:01:48;;;;;;;8.27;4.88;;;;;;;;;;5109290;28;20525;-72
2022/07/14 06:04:18;;;;;;;8.43;5.05;;;;;;;;;;5107117;28;20059;-70
2022/07/14 06:06:49;;;;;;;9.55;5.47;;;;;;;;;;5107030;28;20062;-72
2022/07/14 06:09:19;;;;;;;10.40;5.07;;;;;;;;;;5106942;28;20417;-70
2022/07/14 06:11:49;;;;;;;10.20;4.85;;;;;;;;;;5107054;28;20052;-70
2022/07/14 06:14:21;;;;;;;7.60;4.15;;;;;;;;;;5106816;28;20082;-70
2022/07/14 06:16:51;;;;;;;8.90;3.67;;;;;;;;;;5107251;28;20426;-72
2022/07/14 06:19:21;;;;;;;9.40;4.95;;;;;;;;;;5106764;28;20054;-71
2022/07/14 06:21:51;;;;;;;9.02;4.95;;;;;;;;;;5106980;28;20133;-71
2022/07/14 06:24:23;;;;;;;9.02;5.00;;;;;;;;;;5106977;28;20054;-71
2022/07/14 06:26:53;;;;;;;9.57;4.93;;;;;;;;;;5108859;28;20040;-71
2022/07/14 06:29:23;;;;;;;10.55;6.28;;;;;;;;;;5106557;28;20056;-70
2022/07/14 06:31:55;;;;;;;9.30;4.70;;;;;;;;;;5106690;28;20067;-70
2022/07/14 06:34:26;;;;;;;9.50;4.82;;;;;;;;;;5106335;28;20059;-70
2022/07/14 06:37:18;;;;;;;10.55;5.47;;;;;;;;;;5106449;28;20055;-71
2022/07/14 06:39:48;;;;;;;10.73;5.88;;;;;;;;;;5106702;28;20053;-71
2022/07/14 06:42:19;;;;;;;10.52;4.75;;;;;;;;;;5106736;28;20054;-71
2022/07/14 06:45:08;;;;;;;9.25;4.65;;;;;;;;;;5106248;28;20064;-70
2022/07/14 06:47:38;;;;;;;8.10;5.13;;;;;;;;;;5107949;28;20035;-72
2022/07/14 06:50:08;;;;;;;;;;;;;;;;;;5108790;28;20051;-71
2022/07/14 06:52:38;;;;;;;9.60;5.10;;;;;;;;;;5105589;28;19923;-71
2022/07/14 06:55:09;;;;;;;10.75;5.35;;;;;;;;;;5107752;28;20051;-72
2022/07/14 06:57:38;;;;;;;8.88;4.60;;;;;;;;;;5108182;28;20055;-70
2022/07/14 07:00:09;;;;;;;7.30;4.40;;;;;;;;;;5106401;28;20081;-71
2022/07/14 07:02:40;;;;;;;10.13;5.20;;;;;;;;;;5108029;28;20044;-72
2022/07/14 07:08:00;;;;;;;10.95;4.88;;;;;;;;;;5107872;28;20501;-70
2022/07/14 07:10:30;;;;;;;9.27;5.55;;;;;;;;;;5106075;28;20052;-71
2022/07/14 07:13:00;;;;;;;11.25;5.60;;;;;;;;;;5107477;28;20039;-71
2022/07/14 07:15:30;;;;;;;10.57;4.85;;;;;;;;;;5107958;28;20044;-71
2022/07/14 07:18:01;;;;;;;10.77;6.10;;;;;;;;;;5105760;28;20042;-71
2022/07/14 07:20:34;;;;;;;9.75;5.20;;;;;;;;;;5107612;28;20059;-70
2022/07/14 07:23:05;;;;;;;13.35;5.75;;;;;;;;;;5107407;28;20054;-72
2022/07/14 07:25:35;;;;;;;8.98;5.45;;;;;;;;;;5106851;28;20054;-71
2022/07/14 07:28:05;;;;;;;9.48;5.47;;;;;;;;;;5107397;28;20465;-70
2022/07/14 07:30:34;;;;;;;;;;;;;;;;;;5107710;28;20048;-70
2022/07/14 07:33:04;;;;;;;9.50;4.80;;;;;;;;;;5106988;28;20402;-72
2022/07/14 07:35:35;;;;;;;13.77;5.63;;;;;;;;;;5106453;28;20400;-72
2022/07/14 07:38:08;;;;;;;11.68;5.97;;;;;;;;;;5107533;28;20043;-70
2022/07/14 07:40:38;;;;;;;10.63;6.15;;;;;;;;;;5107699;28;20043;-70
2022/07/14 07:43:08;;;;;;;12.18;5.95;;;;;;;;;;5106881;28;20047;-71
2022/07/14 07:45:37;;;;;;;8.55;4.97;;;;;;;;;;5107456;28;20043;-71
2022/07/14 07:48:09;;;;;;;10.25;5.45;;;;;;;;;;5107069;28;20054;-71
2022/07/14 07:50:44;;;;;;;10.77;5.65;;;;;;;;;;5107444;28;20047;-70
2022/07/14 07:53:14;;;;;;;9.35;5.30;;;;;;;;;;5107097;28;20521;-72
2022/07/14 07:55:44;;;;;;;10.80;5.75;;;;;;;;;;5106719;28;20051;-71
2022/07/14 07:58:14;;;;;;;12.23;6.30;;;;;;;;;;5107025;28;20051;-71
2022/07/14 08:00:43;;;;;;;;;;;;;;;;;;5108056;28;20091;-72
2022/07/14 08:03:13;;;;;;;15.27;6.10;;;;;;;;;;5107419;28;19924;-72
2022/07/14 08:05:43;;;;;;;8.88;4.95;;;;;;;;;;5107321;28;20039;-72
2022/07/14 08:08:27;;;;;;;13.23;5.07;;;;;;;;;;5106823;28;20055;-72
2022/07/14 08:10:57;;;;;;;9.75;5.75;;;;;;;;;;5106989;28;20059;-70
2022/07/14 08:13:26;;;;;;;;;;;;;;;;;;5107498;28;20513;-71
2022/07/14 08:15:57;;;;;;;8.73;5.57;;;;;;;;;;5106673;28;19920;-72
2022/07/14 08:18:27;;;;;;;11.57;5.18;;;;;;;;;;5106540;28;20054;-72
2022/07/14 08:20:56;;;;;;;;;;;;;;;;;;5107715;28;20051;-72
2022/07/14 08:23:27;;;;;;;10.18;4.95;;;;;;;;;;5106841;28;19924;-71
2022/07/14 08:25:57;;;;;;;9.65;5.13;;;;;;;;;;5107276;28;20047;-70
2022/07/14 08:28:27;;;;;;;11.15;5.22;;;;;;;;;;5109060;28;20055;-71
2022/07/14 08:30:57;;;;;;;12.10;5.78;;;;;;;;;;5110419;28;20039;-71
2022/07/14 08:33:26;;;;;;;;;;;;;;;;;;5110984;28;20055;-70
2022/07/14 08:35:56;;;;;;;12.48;5.72;;;;;;;;;;5109371;28;19923;-71
2022/07/14 08:38:26;;;;;;;13.35;5.60;;;;;;;;;;5110717;28;20411;-70
2022/07/14 08:40:56;;;;;;;11.45;5.63;;;;;;;;;;5110275;28;20048;-70
2022/07/14 08:43:27;;;;;;;11.70;5.75;;;;;;;;;;5108372;28;20522;-72
2022/07/14 08:46:00;;;;;;;15.30;6.53;;;;;;;;;;5110838;28;20044;-71
2022/07/14 08:48:32;;;;;;;12.27;5.07;;;;;;;;;;5111186;28;20044;-71
2022/07/14 08:51:02;;;;;;;10.73;5.03;;;;;;;;;;5110427;28;20530;-70
2022/07/14 08:53:34;;;;;;;9.95;4.63;;;;;;;;;;5111090;28;20055;-70
2022/07/14 08:56:04;;;;;;;9.50;5.53;;;;;;;;;;5110735;28;20055;-70
2022/07/14 08:58:34;;;;;;;;;;;;;;;;;;5110691;28;20052;-69
2022/07/14 09:01:04;;;;;;;9.77;4.85;;;;;;;;;;5109395;28;19924;-70
2022/07/14 09:03:34;;;;;;;9.80;5.25;;;;;;;;;;5110081;28;20570;-70
2022/07/14 09:06:43;;;;;;;10.23;4.47;;;;;;;;;;5109986;28;20036;-70
2022/07/14 09:09:17;;;;;;;12.98;4.72;;;;;;;;;;5110655;28;20048;-70
2022/07/14 09:11:55;;;;;;;8.75;5.18;;;;;;;;;;5110640;28;20043;-69
2022/07/14 09:14:29;;;;;;;10.30;4.40;;;;;;;;;;5110091;28;20408;-70
2022/07/14 09:17:20;;;;;;;9.80;4.60;;;;;;;;;;5109388;28;20043;-72
2022/07/14 09:20:11;;;;;;;10.80;5.53;;;;;;;;;;5109746;28;20051;-79
2022/07/14 09:22:43;;;;;;;9.77;5.15;;;;;;;;;;5109468;28;20525;-72
2022/07/14 09:25:18;;;;;;;10.15;5.50;;;;;;;;;;5109631;28;20079;-70
2022/07/14 09:27:48;;;;;;;11.15;5.75;;;;;;;;;;5109941;28;20044;-70
2022/07/14 09:30:17;;;;;;;;;;;;;;;;;;5110227;28;20043;-69
2022/07/14 09:32:53;;;;;;;8.65;4.57;;;;;;;;;;5109782;28;19924;-70
2022/07/14 09:35:43;;;;;;;10.60;5.57;;;;;;;;;;5109776;28;20058;-70
2022/07/14 09:38:20;;;;;;;11.15;5.82;;;;;;;;;;5109787;28;20044;-72
2022/07/14 09:40:51;;;;;;;10.07;5.28;;;;;;;;;;5108749;28;20063;-73
2022/07/14 09:43:21;;;;;;;10.65;5.03;;;;;;;;;;5108832;28;20047;-71
2022/07/14 09:45:51;;;;;;;9.60;5.30;;;;;;;;;;5109575;28;20501;-71
2022/07/14 09:48:21;;;;;;;11.52;5.55;;;;;;;;;;5109024;28;20044;-72
2022/07/14 09:50:54;;;;;;;9.15;4.85;;;;;;;;;;5109268;28;20051;-72
2022/07/14 09:53:33;;;;;;;8.70;4.70;;;;;;;;;;5109285;28;20047;-72
2022/07/14 09:56:06;;;;;;;16.92;11.10;;;;;;;;;;5108959;28;20047;-72
2022/07/14 09:58:44;;;;;;;9.88;5.10;;;;;;;;;;5092163;28;20039;-73
2022/07/14 10:01:18;;;;;;;9.57;5.05;;;;;;;;;;5109179;28;20050;-71
2022/07/14 10:03:50;;;;;;;10.27;5.82;;;;;;;;;;5109233;28;20050;-72
2022/07/14 10:06:22;;;;;;;11.60;5.65;;;;;;;;;;5109362;28;20502;-72
2022/07/14 10:09:06;;;;;;;9.05;4.97;;;;;;;;;;5108256;28;20054;-80
2022/07/14 10:11:38;;;;;;;11.20;6.00;;;;;;;;;;5108527;28;20047;-72
2022/07/14 10:14:08;;;;;;;11.85;5.47;;;;;;;;;;5108298;28;20050;-71
2022/07/14 10:16:41;;;;;;;12.23;6.10;;;;;;;;;;5108571;28;20148;-72
2022/07/14 10:19:12;;;;;;;12.10;5.60;;;;;;;;;;5108224;28;20601;-71
2022/07/14 10:21:45;;;;;;;11.52;5.35;;;;;;;;;;5108993;28;20521;-72
2022/07/14 10:24:17;;;;;;;12.07;6.50;;;;;;;;;;5109019;28;20055;-72
2022/07/14 10:26:48;;;;;;;11.68;6.03;;;;;;;;;;5108764;28;20059;-71
2022/07/14 10:29:18;;;;;;;16.05;6.97;;;;;;;;;;5108609;28;20058;-71
2022/07/14 10:32:08;;;;;;;8.88;5.32;;;;;;;;;;5107641;28;20055;-72
2022/07/14 10:34:51;;;;;;;9.38;5.25;;;;;;;;;;5085772;28;20454;-71
2022/07/14 10:37:59;;;;;;;13.57;5.22;;;;;;;;;;5108185;28;20406;-72
2022/07/14 10:40:32;;;;;;;16.38;6.65;;;;;;;;;;5103417;28;20059;-71
2022/07/14 10:43:18;;;;;;;15.43;5.97;;;;;;;;;;5107576;28;20047;-72
2022/07/14 10:45:54;;;;;;;12.32;6.10;;;;;;;;;;5107505;28;20415;-71
2022/07/14 10:48:35;;;;;;;16.00;7.05;;;;;;;;;;5108248;28;20058;-74
2022/07/14 10:51:21;;;;;;;12.57;5.80;;;;;;;;;;5106859;28;20054;-72
2022/07/14 10:54:08;;;;;;;17.63;8.95;;;;;;;;;;5108102;28;20035;-72
2022/07/14 10:57:27;;;;;;;15.23;6.35;;;;;;;;;;5108020;28;20070;-76
2022/07/14 10:59:57;;;;;;;13.02;6.65;;;;;;;;;;5099421;28;20056;-72
2022/07/14 11:02:28;;;;;;;;;;;;;;;;;;5108185;28;20048;-72
2022/07/14 11:05:04;;;;;;;10.57;5.75;;;;;;;;;;5108067;28;19931;-76
2022/07/14 11:07:43;;;;;;;10.85;5.95;;;;;;;;;;5107402;28;20047;-72
2022/07/14 11:10:18;;;;;;;12.05;6.07;;;;;;;;;;5107846;28;20062;-69
2022/07/14 11:13:03;;;;;;;16.60;6.40;;;;;;;;;;5108375;28;20054;-70
2022/07/14 11:15:46;;;;;;;10.25;5.30;;;;;;;;;;5107315;28;20434;-69
2022/07/14 11:18:21;;;;;;;11.98;5.78;;;;;;;;;;5107940;28;20048;-71
2022/07/14 11:20:59;;;;;;;11.45;5.47;;;;;;;;;;5107466;28;20047;-72
2022/07/14 11:23:52;;;;;;;18.52;6.43;;;;;;;;;;5107594;28;20517;-71
2022/07/14 11:26:34;;;;;;;9.50;5.70;;;;;;;;;;5107438;28;20044;-72
2022/07/14 11:29:11;;;;;;;16.27;6.50;;;;;;;;;;5106891;28;20059;-70
2022/07/14 11:31:49;;;;;;;13.85;6.05;;;;;;;;;;5105699;28;20048;-71
2022/07/14 11:37:19;;;;;;;11.60;6.63;;;;;;;;;;5107432;28;20047;-73
2022/07/14 11:40:47;;;;;;;12.13;6.95;;;;;;;;;;5107203;28;20054;-70
2022/07/14 11:43:26;;;;;;;19.10;6.25;;;;;;;;;;5107412;28;20048;-71
2022/07/14 11:46:22;;;;;;;11.48;6.22;;;;;;;;;;5107043;28;20044;-71
2022/07/14 11:48:54;;;;;;;13.90;7.55;;;;;;;;;;5107191;28;20490;-71
2022/07/14 11:51:27;;;;;;;12.77;5.93;;;;;;;;;;5106966;28;20040;-70
2022/07/14 11:53:59;;;;;;;16.35;6.00;;;;;;;;;;5106796;28;20044;-72
2022/07/14 11:56:30;;;;;;;11.18;5.82;;;;;;;;;;5107291;28;20047;-70
2022/07/14 11:59:05;;;;;;;11.68;5.47;;;;;;;;;;5107268;28;20055;-71
2022/07/14 12:01:42;;;;;;;11.63;5.80;;;;;;;;;;5107149;28;20036;-71
2022/07/14 12:04:15;;;;;;;13.38;5.63;;;;;;;;;;5110826;28;20048;-71
2022/07/14 12:06:48;;;;;;;18.50;5.72;;;;;;;;;;5111058;28;20048;-70
2022/07/14 12:09:30;;;;;;;11.65;5.57;;;;;;;;;;5111314;28;20058;-73
2022/07/14 12:12:15;;;;;;;10.88;5.45;;;;;;;;;;5111327;28;20054;-70
2022/07/14 12:14:46;;;;;;;13.15;6.15;;;;;;;;;;5110813;28;20509;-70
2022/07/14 12:17:18;;;;;;;8.10;4.60;;;;;;;;;;5111281;28;20047;-71
2022/07/14 12:19:48;;;;;;;9.48;4.97;;;;;;;;;;5111205;28;20040;-70
2022/07/14 12:22:20;;;;;;;14.98;6.78;;;;;;;;;;5110933;28;20043;-70
2022/07/14 12:24:50;;;;;;;14.80;8.07;;;;;;;;;;5111194;28;20176;-70
2022/07/14 12:27:21;;;;;;;15.27;8.38;;;;;;;;;;5110755;28;20047;-70
2022/07/14 12:29:53;;;;;;;13.50;6.53;;;;;;;;;;5110730;28;20470;-70
2022/07/14 12:32:26;;;;;;;11.13;5.93;;;;;;;;;;5109105;28;20048;-71
2022/07/14 12:34:57;;;;;;;13.77;6.60;;;;;;;;;;5110378;28;20059;-73
2022/07/14 12:37:27;;;;;;;13.32;6.80;;;;;;;;;;5110876;28;20047;-71
2022/07/14 12:40:19;;;;;;;11.55;5.43;;;;;;;;;;5110902;28;20055;-71
2022/07/14 12:42:49;;;;;;;10.25;4.88;;;;;;;;;;5110889;28;20043;-70
2022/07/14 12:45:19;;;;;;;9.85;5.15;;;;;;;;;;5110231;28;20050;-70
2022/07/14 12:48:03;;;;;;;14.23;7.07;;;;;;;;;;5108964;28;20043;-70
2022/07/14 12:50:33;;;;;;;14.30;6.30;;;;;;;;;;5110575;28;20036;-70
2022/07/14 12:53:09;;;;;;;7.10;4.05;;;;;;;;;;5111094;28;20044;-70
2022/07/14 12:55:45;;;;;;;16.00;8.82;;;;;;;;;;5109461;28;20050;-71
2022/07/14 12:58:16;;;;;;;13.85;7.03;;;;;;;;;;5109727;28;20595;-70
2022/07/14 13:00:45;;;;;;;11.25;6.40;;;;;;;;;;5110639;28;20398;-71
2022/07/14 13:03:19;;;;;;;12.40;5.93;;;;;;;;;;5110021;28;20051;-70
2022/07/14 13:05:56;;;;;;;10.50;6.00;;;;;;;;;;5110408;28;20499;-70
2022/07/14 13:08:38;;;;;;;10.88;6.03;;;;;;;;;;5110359;28;20052;-71
2022/07/14 13:11:10;;;;;;;11.82;6.55;;;;;;;;;;5110117;28;20048;-71
2022/07/14 13:13:50;;;;;;;11.57;5.47;;;;;;;;;;5109376;28;20054;-70
2022/07/14 13:16:25;;;;;;;11.05;5.25;;;;;;;;;;5109947;28;20047;-70
2022/07/14 13:19:07;;;;;;;;;;;;;;;;;;5110530;28;20549;-70
2022/07/14 13:21:50;;;;;;;6.55;3.35;;;;;;;;;;5109545;28;19923;-70
2022/07/14 13:24:22;;;;;;;7.05;2.97;;;;;;;;;;5109696;28;20407;-70
2022/07/14 13:27:12;;;;;;;7.50;3.38;;;;;;;;;;5109998;28;20418;-70
2022/07/14 13:29:49;;;;;;;6.68;3.88;;;;;;;;;;5109674;28;20043;-70
2022/07/14 13:32:28;;;;;;;7.30;5.15;;;;;;;;;;5110165;28;20609;-71
2022/07/14 13:34:57;;;;;;;;;;;;;;;;;;5110397;28;20419;-71
2022/07/14 13:37:27;;;;;;;5.78;4.10;;;;;;;;;;5109415;28;19920;-71
2022/07/14 13:39:57;;;;;;;6.32;3.70;;;;;;;;;;5109446;28;20054;-72
2022/07/14 13:42:26;;;;;;;;;;;;;;;;;;5109635;28;20055;-71
2022/07/14 13:44:56;;;;;;;5.57;3.67;;;;;;;;;;5109016;28;19930;-71
2022/07/14 13:47:26;;;;;;;5.47;3.60;;;;;;;;;;5108113;28;20052;-71
2022/07/14 13:52:44;;;;;;;5.22;2.97;;;;;;;;;;5109552;28;20048;-73
2022/07/14 13:55:18;;;;;;;4.82;2.90;;;;;;;;;;5108999;28;20040;-71
2022/07/14 13:57:48;;;;;;;4.95;2.60;;;;;;;;;;5109294;28;20410;-71
2022/07/14 14:00:18;;;;;;;6.55;3.45;;;;;;;;;;5109202;28;20043;-71
2022/07/14 14:05:36;;;;;;;6.65;3.30;;;;;;;;;;5109281;28;20043;-71
2022/07/14 14:08:09;;;;;;;3.15;2.22;;;;;;;;;;5109117;28;20414;-70
2022/07/14 14:10:40;;;;;;;4.50;2.40;;;;;;;;;;5108259;28;20046;-71
2022/07/14 14:13:10;;;;;;;7.10;2.15;;;;;;;;;;5108893;28;20044;-74
2022/07/14 14:15:40;;;;;;;5.43;2.22;;;;;;;;;;5108899;28;20052;-71
2022/07/14 14:18:11;;;;;;;4.80;2.10;;;;;;;;;;5108910;28;20503;-70
2022/07/14 14:20:42;;;;;;;7.88;3.00;;;;;;;;;;5108452;28;20048;-70
2022/07/14 14:23:12;;;;;;;5.40;2.90;;;;;;;;;;5108172;28;20498;-71
2022/07/14 14:25:44;;;;;;;6.65;2.72;;;;;;;;;;5108318;28;20047;-71
2022/07/14 14:28:15;;;;;;;7.18;2.50;;;;;;;;;;5108167;28;20047;-72
2022/07/14 14:30:45;;;;;;;5.57;3.15;;;;;;;;;;5108480;28;20047;-74
2022/07/14 14:33:15;;;;;;;4.88;1.55;;;;;;;;;;5108395;28;20047;-71
2022/07/14 14:35:45;;;;;;;2.15;1.33;;;;;;;;;;5108201;28;20054;-71
2022/07/14 14:38:15;;;;;;;2.05;1.45;;;;;;;;;;5108496;28;20677;-75
2022/07/14 14:40:45;;;;;;;2.58;1.77;;;;;;;;;;5106774;28;20052;-71
2022/07/14 14:43:15;;;;;;;4.63;1.60;;;;;;;;;;5108396;28;20051;-71
2022/07/14 14:45:46;;;;;;;4.90;1.70;;;;;;;;;;5108270;28;20066;-71
2022/07/14 14:48:19;;;;;;;2.50;1.52;;;;;;;;;;5108024;28;20051;-71
2022/07/14 14:50:49;;;;;;;2.90;1.73;;;;;;;;;;5108012;28;20043;-72
2022/07/14 14:53:19;;;;;;;1.45;1.35;;;;;;;;;;5108534;28;20052;-71
2022/07/14 14:55:49;;;;;;;2.58;1.67;;;;;;;;;;5108027;28;20040;-71
2022/07/14 14:58:19;;;;;;;3.72;1.80;;;;;;;;;;5107697;28;20059;-71
2022/07/14 15:00:49;;;;;;;4.05;1.90;;;;;;;;;;5108003;28;20051;-71
2022/07/14 15:03:19;;;;;;;8.40;2.85;;;;;;;;;;5108319;28;20047;-71
2022/07/14 15:05:49;;;;;;;4.28;1.60;;;;;;;;;;5108199;28;20043;-71
2022/07/14 15:08:18;;;;;;;3.70;1.20;;;;;;;;;;5108465;28;20703;-71
2022/07/14 15:10:48;;;;;;;4.13;1.60;;;;;;;;;;5108114;28;20050;-71
2022/07/14 15:13:18;;;;;;;6.25;1.80;;;;;;;;;;5108696;28;20055;-71
2022/07/14 15:15:48;;;;;;;2.83;1.40;;;;;;;;;;5107599;28;20504;-73
2022/07/14 15:18:17;;;;;;;6.28;1.55;;;;;;;;;;5107406;28;20418;-71
2022/07/14 15:20:48;;;;;;;4.25;1.45;;;;;;;;;;5107200;28;20043;-71
2022/07/14 15:23:18;;;;;;;3.63;1.42;;;;;;;;;;5107828;28;20133;-71
2022/07/14 15:25:48;;;;;;;;;;;;;;;;;;5107813;28;20047;-71
2022/07/14 15:28:17;;;;;;;3.78;1.90;;;;;;;;;;5106265;28;19934;-70
2022/07/14 15:30:47;;;;;;;10.80;4.25;;;;;;;;;;5107887;28;20047;-71
2022/07/14 15:33:17;;;;;;;6.85;3.25;;;;;;;;;;5107780;28;20383;-71
2022/07/14 15:35:46;;;;;;;;;;;;;;;;;;5108099;28;20089;-71
2022/07/14 15:38:16;;;;;;;5.90;3.58;;;;;;;;;;5106606;28;19923;-71